sensor_id;sensor_type;location;lat;lon;timestamp;pressure;altitude;pressure_sealevel;temperature;humidity
45939;BME280;31650;48.818;9.116;2023-08-07T00:09:28;97880.31;;;11.00;100.00
45939;BME280;31650;48.818;9.116;2023-08-07T00:24:28;97879.84;;;11.03;100.00
45939;BME280;31650;48.818;9.116;2023-08-07T00:39:28;97882.59;;;11.22;100.00
45939;BME280;31650;48.818;9.116;2023-08-07T00:54:28;97890.44;;;11.30;100.00
45939;BME280;31650;48.818;9.116;2023-08-07T01:09:29;97885.31;;;11.40;100.00
45939;BME280;31650;48.818;9.116;2023-08-07T01:24:30;97888.19;;;11.45;100.00
45939;BME280;31650;48.818;9.116;2023-08-07T01:39:30;97876.06;;;11.41;100.00
45939;BME280;31650;48.818;9.116;2023-08-07T01:54:31;97884.72;;;11.38;100.00
45939;BME280;31650;48.818;9.116;2023-08-07T02:09:31;97862.78;;;11.33;100.00
45939;BME280;31650;48.818;9.116;2023-08-07T02:24:31;97892.34;;;11.48;100.00
45939;BME280;31650;48.818;9.116;2023-08-07T02:39:32;97904.06;;;11.12;100.00
45939;BME280;31650;48.818;9.116;2023-08-07T02:54:32;97911.44;;;11.04;100.00
45939;BME280;31650;48.818;9.116;2023-08-07T03:09:32;97903.41;;;10.91;100.00
45939;BME280;31650;48.818;9.116;2023-08-07T03:24:33;97910.69;;;10.97;100.00
45939;BME280;31650;48.818;9.116;2023-08-07T03:39:33;97908.13;;;11.02;100.00
45939;BME280;31650;48.818;9.116;2023-08-07T03:54:33;97924.38;;;11.09;100.00
45939;BME280;31650;48.818;9.116;2023-08-07T04:09:33;97922.28;;;10.86;100.00
45939;BME280;31650;48.818;9.116;2023-08-07T04:24:34;97928.28;;;10.95;100.00
45939;BME280;31650;48.818;9.116;2023-08-07T04:39:34;97938.28;;;11.19;100.00
45939;BME280;31650;48.818;9.116;2023-08-07T04:54:35;97939.97;;;11.39;100.00
45939;BME280;31650;48.818;9.116;2023-08-07T05:09:36;97940.66;;;11.52;100.00
45939;BME280;31650;48.818;9.116;2023-08-07T05:24:36;97950.88;;;11.57;100.00
45939;BME280;31650;48.818;9.116;2023-08-07T05:39:39;97959.00;;;12.12;100.00
45939;BME280;31650;48.818;9.116;2023-08-07T05:54:39;97960.09;;;12.53;100.00
45939;BME280;31650;48.818;9.116;2023-08-07T06:09:40;97964.88;;;12.82;97.16
45939;BME280;31650;48.818;9.116;2023-08-07T06:24:40;97993.00;;;12.82;98.84
45939;BME280;31650;48.818;9.116;2023-08-07T06:39:40;97992.22;;;13.17;97.13
45939;BME280;31650;48.818;9.116;2023-08-07T06:54:41;97992.19;;;13.88;87.60
45939;BME280;31650;48.818;9.116;2023-08-07T07:09:41;97998.88;;;14.20;78.19
45939;BME280;31650;48.818;9.116;2023-08-07T07:24:42;98015.94;;;13.87;75.21
45939;BME280;31650;48.818;9.116;2023-08-07T07:39:42;98016.72;;;14.11;78.99
45939;BME280;31650;48.818;9.116;2023-08-07T07:54:42;98011.22;;;14.63;71.75
45939;BME280;31650;48.818;9.116;2023-08-07T08:09:43;98024.72;;;14.41;72.15
45939;BME280;31650;48.818;9.116;2023-08-07T08:24:43;98038.28;;;14.48;69.39
45939;BME280;31650;48.818;9.116;2023-08-07T08:39:43;98027.03;;;15.58;67.47
45939;BME280;31650;48.818;9.116;2023-08-07T08:54:44;98032.16;;;16.32;61.10
45939;BME280;31650;48.818;9.116;2023-08-07T09:09:44;98051.31;;;16.05;61.67
45939;BME280;31650;48.818;9.116;2023-08-07T09:24:45;98069.41;;;16.28;60.75
45939;BME280;31650;48.818;9.116;2023-08-07T09:39:46;98068.44;;;16.61;60.86
45939;BME280;31650;48.818;9.116;2023-08-07T09:54:46;98090.88;;;16.31;60.76
45939;BME280;31650;48.818;9.116;2023-08-07T10:09:46;98065.38;;;17.71;57.10
45939;BME280;31650;48.818;9.116;2023-08-07T10:24:47;98076.00;;;17.57;55.54
45939;BME280;31650;48.818;9.116;2023-08-07T10:40:03;98086.44;;;16.52;56.95
45939;BME280;31650;48.818;9.116;2023-08-07T10:55:12;98080.53;;;16.82;57.31
45939;BME280;31650;48.818;9.116;2023-08-07T11:10:13;98097.53;;;16.79;57.01
45939;BME280;31650;48.818;9.116;2023-08-07T11:25:15;98102.56;;;16.43;58.86
45939;BME280;31650;48.818;9.116;2023-08-07T11:40:16;98107.88;;;16.11;61.82
45939;BME280;31650;48.818;9.116;2023-08-07T11:55:17;98114.88;;;15.85;63.29
45939;BME280;31650;48.818;9.116;2023-08-07T12:10:18;98130.09;;;16.31;63.60
45939;BME280;31650;48.818;9.116;2023-08-07T12:25:18;98123.84;;;16.36;64.60
45939;BME280;31650;48.818;9.116;2023-08-07T12:40:19;98118.25;;;17.19;62.94
45939;BME280;31650;48.818;9.116;2023-08-07T12:55:21;98115.09;;;17.97;60.48
45939;BME280;31650;48.818;9.116;2023-08-07T13:10:21;98118.47;;;17.39;63.99
45939;BME280;31650;48.818;9.116;2023-08-07T13:25:22;98114.94;;;17.17;61.62
45939;BME280;31650;48.818;9.116;2023-08-07T13:40:23;98104.94;;;19.74;54.43
45939;BME280;31650;48.818;9.116;2023-08-07T13:55:23;98115.00;;;18.82;56.64
45939;BME280;31650;48.818;9.116;2023-08-07T14:10:24;98113.66;;;19.00;53.96
45939;BME280;31650;48.818;9.116;2023-08-07T14:25:24;98128.69;;;18.14;55.97
45939;BME280;31650;48.818;9.116;2023-08-07T14:40:24;98125.53;;;18.42;55.80
45939;BME280;31650;48.818;9.116;2023-08-07T14:55:25;98115.38;;;19.21;54.85
45939;BME280;31650;48.818;9.116;2023-08-07T15:10:26;98141.44;;;17.87;57.14
45939;BME280;31650;48.818;9.116;2023-08-07T15:25:26;98132.31;;;17.22;57.87
45939;BME280;31650;48.818;9.116;2023-08-07T15:40:27;98131.66;;;18.55;58.05
45939;BME280;31650;48.818;9.116;2023-08-07T15:55:28;98150.72;;;18.19;57.48
45939;BME280;31650;48.818;9.116;2023-08-07T16:10:29;98134.75;;;18.73;56.83
45939;BME280;31650;48.818;9.116;2023-08-07T16:25:30;98127.25;;;18.59;56.96
45939;BME280;31650;48.818;9.116;2023-08-07T16:40:30;98118.13;;;18.43;57.28
45939;BME280;31650;48.818;9.116;2023-08-07T16:55:35;98122.75;;;17.90;59.46
45939;BME280;31650;48.818;9.116;2023-08-07T17:10:35;98136.38;;;18.12;56.69
45939;BME280;31650;48.818;9.116;2023-08-07T17:25:36;98130.50;;;17.98;58.62
45939;BME280;31650;48.818;9.116;2023-08-07T17:40:36;98136.63;;;17.73;60.23
45939;BME280;31650;48.818;9.116;2023-08-07T17:55:36;98149.72;;;17.33;63.04
45939;BME280;31650;48.818;9.116;2023-08-07T18:10:38;98145.94;;;16.68;65.36
45939;BME280;31650;48.818;9.116;2023-08-07T18:25:38;98172.88;;;15.76;69.10
45939;BME280;31650;48.818;9.116;2023-08-07T18:40:39;98175.69;;;15.36;70.71
45939;BME280;31650;48.818;9.116;2023-08-07T18:55:39;98190.13;;;15.03;74.20
45939;BME280;31650;48.818;9.116;2023-08-07T19:10:40;98199.97;;;14.75;75.53
45939;BME280;31650;48.818;9.116;2023-08-07T19:25:40;98199.41;;;14.38;78.11
45939;BME280;31650;48.818;9.116;2023-08-07T19:40:41;98210.94;;;14.04;80.51
45939;BME280;31650;48.818;9.116;2023-08-07T19:55:41;98216.25;;;13.88;81.83
45939;BME280;31650;48.818;9.116;2023-08-07T20:10:42;98219.38;;;13.49;86.70
45939;BME280;31650;48.818;9.116;2023-08-07T20:25:42;98213.69;;;13.20;91.18
45939;BME280;31650;48.818;9.116;2023-08-07T20:40:42;98215.22;;;13.16;92.27
45939;BME280;31650;48.818;9.116;2023-08-07T20:55:43;98208.09;;;13.46;89.30
45939;BME280;31650;48.818;9.116;2023-08-07T21:10:43;98192.97;;;13.31;90.77
45939;BME280;31650;48.818;9.116;2023-08-07T21:25:45;98186.53;;;13.26;90.89
45939;BME280;31650;48.818;9.116;2023-08-07T21:40:45;98175.56;;;13.14;93.20
45939;BME280;31650;48.818;9.116;2023-08-07T21:55:46;98187.78;;;13.11;94.85
45939;BME280;31650;48.818;9.116;2023-08-07T22:10:46;98173.19;;;13.17;92.89
45939;BME280;31650;48.818;9.116;2023-08-07T22:25:46;98166.31;;;13.15;92.93
45939;BME280;31650;48.818;9.116;2023-08-07T22:40:47;98159.53;;;13.17;92.43
45939;BME280;31650;48.818;9.116;2023-08-07T22:55:47;98152.00;;;12.89;96.12
45939;BME280;31650;48.818;9.116;2023-08-07T23:10:48;98151.63;;;12.67;100.00
45939;BME280;31650;48.818;9.116;2023-08-07T23:25:48;98165.72;;;12.46;100.00
45939;BME280;31650;48.818;9.116;2023-08-07T23:40:48;98152.41;;;12.38;100.00
45939;BME280;31650;48.818;9.116;2023-08-07T23:55:49;98136.66;;;12.40;100.00
